| Date | Time | Temp. (oF) | Dew Point (oF) | Rel. Hum. (%) | Press. (in.) | Wind Dir. | Wind Speed (mph) | Hourly Rainfall (in.) |
|
|---|---|---|---|---|---|---|---|---|---|
| 1 | 09/01 | 00:00 | 62 | 58 | 88 | 30.17 | ENE | 0 | 0.00 |
| 2 | 08/31 | 23:00 | 64 | 58 | 81 | 30.14 | ENE | 0 | 0.00 |
| 3 | 08/31 | 22:00 | 66 | 57 | 74 | 30.14 | NE | 0 | 0.00 |
| 4 | 08/31 | 21:00 | 71 | 55 | 58 | 30.12 | NNW | 0 | 0.00 |
| 5 | 08/31 | 20:00 | 77 | 51 | 41 | 30.10 | NNW | 0 | 0.00 |
| 6 | 08/31 | 19:00 | 82 | 49 | 33 | 30.09 | NNW | 0 | 0.00 |
| 7 | 08/31 | 18:00 | 84 | 47 | 29 | 30.08 | NNW | 3 | 0.00 |
| 8 | 08/31 | 17:00 | 85 | 46 | 27 | 30.09 | N | 3 | 0.00 |
| 9 | 08/31 | 16:00 | 85 | 50 | 31 | 30.11 | NNW | 3 | 0.00 |
| 10 | 08/31 | 15:00 | 85 | 52 | 33 | 30.13 | N | 4 | 0.00 |
| 11 | 08/31 | 14:00 | 83 | 53 | 36 | 30.16 | NW | 2 | 0.00 |
| 12 | 08/31 | 13:00 | 82 | 51 | 35 | 30.18 | NE | 8 | 0.00 |
| 13 | 08/31 | 12:00 | 81 | 52 | 38 | 30.19 | NNE | 9 | 0.00 |
| 14 | 08/31 | 11:00 | 78 | 57 | 50 | 30.20 | NW | 1 | 0.00 |
| 15 | 08/31 | 10:00 | 74 | 60 | 63 | 30.19 | NW | 3 | 0.00 |
| 16 | 08/31 | 09:00 | 69 | 61 | 78 | 30.18 | NW | 0 | 0.00 |
| 17 | 08/31 | 08:00 | 63 | 63 | 100 | 30.17 | WNW | 0 | 0.00 |
| 18 | 08/31 | 07:00 | 60 | 59 | 100 | 30.16 | WNW | 0 | 0.00 |
| 19 | 08/31 | 06:00 | 61 | 60 | 100 | 30.13 | WNW | 0 | 0.00 |
| 20 | 08/31 | 05:00 | 63 | 63 | 100 | 30.12 | WNW | 0 | 0.00 |
| 21 | 08/31 | 04:00 | 64 | 63 | 100 | 30.10 | WNW | 0 | 0.00 |
| 22 | 08/31 | 03:00 | 66 | 66 | 100 | 30.10 | WNW | 0 | 0.00 |
| 23 | 08/31 | 02:00 | 68 | 67 | 99 | 30.08 | WNW | 0 | 0.00 |
| 24 | 08/31 | 01:00 | 69 | 68 | 98 | 30.08 | WNW | 0 | 0.00 |